sensor_id;sensor_type;location;lat;lon;timestamp;temperature;humidity
25188;DHT22;13141;50.414;8.050;2022-12-18T00:00:32;-4.00;99.90
25188;DHT22;13141;50.414;8.050;2022-12-18T00:02:57;-4.30;99.90
25188;DHT22;13141;50.414;8.050;2022-12-18T00:05:23;-4.30;99.90
25188;DHT22;13141;50.414;8.050;2022-12-18T00:07:48;-4.10;99.90
25188;DHT22;13141;50.414;8.050;2022-12-18T00:10:14;-4.30;99.90
25188;DHT22;13141;50.414;8.050;2022-12-18T00:12:39;-4.30;99.90
25188;DHT22;13141;50.414;8.050;2022-12-18T00:15:05;-4.30;99.90
25188;DHT22;13141;50.414;8.050;2022-12-18T00:17:31;-4.40;99.90
25188;DHT22;13141;50.414;8.050;2022-12-18T00:19:56;-4.40;99.90
25188;DHT22;13141;50.414;8.050;2022-12-18T00:22:22;-4.40;99.90
25188;DHT22;13141;50.414;8.050;2022-12-18T00:24:47;-4.40;99.90
25188;DHT22;13141;50.414;8.050;2022-12-18T00:27:13;-4.50;99.90
25188;DHT22;13141;50.414;8.050;2022-12-18T00:29:39;-4.50;99.90
25188;DHT22;13141;50.414;8.050;2022-12-18T00:32:04;-4.40;99.90
25188;DHT22;13141;50.414;8.050;2022-12-18T00:34:30;-4.40;99.90
25188;DHT22;13141;50.414;8.050;2022-12-18T00:36:55;-4.60;99.90
25188;DHT22;13141;50.414;8.050;2022-12-18T00:39:21;-4.60;99.90
25188;DHT22;13141;50.414;8.050;2022-12-18T00:41:47;-4.70;99.90
25188;DHT22;13141;50.414;8.050;2022-12-18T00:44:31;-4.70;99.90
25188;DHT22;13141;50.414;8.050;2022-12-18T00:46:56;-4.70;99.90
25188;DHT22;13141;50.414;8.050;2022-12-18T00:49:22;-4.80;99.90
25188;DHT22;13141;50.414;8.050;2022-12-18T00:51:48;-4.80;99.90
25188;DHT22;13141;50.414;8.050;2022-12-18T00:54:14;-4.90;99.90
25188;DHT22;13141;50.414;8.050;2022-12-18T00:56:40;-4.90;99.90
25188;DHT22;13141;50.414;8.050;2022-12-18T00:59:05;-5.00;99.90
25188;DHT22;13141;50.414;8.050;2022-12-18T01:01:31;-5.00;99.90
25188;DHT22;13141;50.414;8.050;2022-12-18T01:03:58;-5.10;99.90
25188;DHT22;13141;50.414;8.050;2022-12-18T01:06:24;-5.10;99.90
25188;DHT22;13141;50.414;8.050;2022-12-18T01:08:50;-5.10;99.90
25188;DHT22;13141;50.414;8.050;2022-12-18T01:11:18;-5.20;99.90
25188;DHT22;13141;50.414;8.050;2022-12-18T01:13:44;-5.10;99.90
25188;DHT22;13141;50.414;8.050;2022-12-18T01:16:14;-5.30;99.90
25188;DHT22;13141;50.414;8.050;2022-12-18T01:18:41;-5.20;99.90
25188;DHT22;13141;50.414;8.050;2022-12-18T01:21:12;-5.30;99.90
25188;DHT22;13141;50.414;8.050;2022-12-18T01:23:38;-5.30;99.90
25188;DHT22;13141;50.414;8.050;2022-12-18T01:26:15;-5.30;99.90
25188;DHT22;13141;50.414;8.050;2022-12-18T01:28:41;-5.30;99.90
25188;DHT22;13141;50.414;8.050;2022-12-18T01:31:18;-5.40;99.90
25188;DHT22;13141;50.414;8.050;2022-12-18T01:33:48;-5.50;99.90
25188;DHT22;13141;50.414;8.050;2022-12-18T01:36:26;-5.40;99.90
25188;DHT22;13141;50.414;8.050;2022-12-18T01:38:52;-5.50;99.90
25188;DHT22;13141;50.414;8.050;2022-12-18T01:41:21;-5.60;99.90
25188;DHT22;13141;50.414;8.050;2022-12-18T01:43:58;-5.70;99.90
25188;DHT22;13141;50.414;8.050;2022-12-18T01:46:26;-5.50;99.90
25188;DHT22;13141;50.414;8.050;2022-12-18T01:48:57;-5.70;99.90
25188;DHT22;13141;50.414;8.050;2022-12-18T01:51:24;-5.80;99.90
25188;DHT22;13141;50.414;8.050;2022-12-18T01:53:51;-5.80;99.90
25188;DHT22;13141;50.414;8.050;2022-12-18T01:56:19;-5.80;99.80
25188;DHT22;13141;50.414;8.050;2022-12-18T01:58:46;-5.80;99.60
25188;DHT22;13141;50.414;8.050;2022-12-18T02:01:14;-5.70;99.80
25188;DHT22;13141;50.414;8.050;2022-12-18T02:03:43;-5.90;99.90
25188;DHT22;13141;50.414;8.050;2022-12-18T02:09:04;-5.90;99.70
25188;DHT22;13141;50.414;8.050;2022-12-18T02:11:49;-6.00;99.60
25188;DHT22;13141;50.414;8.050;2022-12-18T02:14:42;-6.00;99.60
25188;DHT22;13141;50.414;8.050;2022-12-18T02:17:50;-6.10;99.50
25188;DHT22;13141;50.414;8.050;2022-12-18T02:28:35;-6.30;99.30
25188;DHT22;13141;50.414;8.050;2022-12-18T02:31:03;-6.30;99.50
25188;DHT22;13141;50.414;8.050;2022-12-18T02:33:31;-6.30;99.60
25188;DHT22;13141;50.414;8.050;2022-12-18T02:35:59;-6.30;99.60
25188;DHT22;13141;50.414;8.050;2022-12-18T02:38:28;-6.40;99.60
25188;DHT22;13141;50.414;8.050;2022-12-18T02:40:55;-6.30;99.60
25188;DHT22;13141;50.414;8.050;2022-12-18T02:43:21;-6.30;99.60
25188;DHT22;13141;50.414;8.050;2022-12-18T02:45:52;-6.30;99.40
25188;DHT22;13141;50.414;8.050;2022-12-18T02:48:24;-6.40;99.60
25188;DHT22;13141;50.414;8.050;2022-12-18T02:53:50;-6.30;99.80
25188;DHT22;13141;50.414;8.050;2022-12-18T02:56:25;-6.40;99.80
25188;DHT22;13141;50.414;8.050;2022-12-18T02:58:59;-6.40;99.80
25188;DHT22;13141;50.414;8.050;2022-12-18T03:01:57;-6.30;99.80
25188;DHT22;13141;50.414;8.050;2022-12-18T03:04:34;-6.40;99.60
25188;DHT22;13141;50.414;8.050;2022-12-18T03:07:05;-6.40;99.80
25188;DHT22;13141;50.414;8.050;2022-12-18T03:09:35;-6.50;99.50
25188;DHT22;13141;50.414;8.050;2022-12-18T03:12:18;-6.50;99.40
25188;DHT22;13141;50.414;8.050;2022-12-18T03:15:03;-6.50;99.30
25188;DHT22;13141;50.414;8.050;2022-12-18T03:17:32;-6.60;99.40
25188;DHT22;13141;50.414;8.050;2022-12-18T03:20:04;-6.30;99.30
25188;DHT22;13141;50.414;8.050;2022-12-18T03:22:32;-6.60;99.20
25188;DHT22;13141;50.414;8.050;2022-12-18T03:25:02;-6.70;99.20
25188;DHT22;13141;50.414;8.050;2022-12-18T03:27:29;-6.60;99.20
25188;DHT22;13141;50.414;8.050;2022-12-18T03:30:06;-6.50;99.10
25188;DHT22;13141;50.414;8.050;2022-12-18T03:35:10;-6.70;99.00
25188;DHT22;13141;50.414;8.050;2022-12-18T03:37:38;-6.50;99.00
25188;DHT22;13141;50.414;8.050;2022-12-18T03:40:05;-6.70;98.90
25188;DHT22;13141;50.414;8.050;2022-12-18T03:42:52;-6.70;99.00
25188;DHT22;13141;50.414;8.050;2022-12-18T03:45:32;-6.80;99.00
25188;DHT22;13141;50.414;8.050;2022-12-18T03:48:37;-6.80;99.20
25188;DHT22;13141;50.414;8.050;2022-12-18T03:51:11;-6.80;99.00
25188;DHT22;13141;50.414;8.050;2022-12-18T03:53:58;-6.80;99.00
25188;DHT22;13141;50.414;8.050;2022-12-18T03:56:28;-6.80;99.10
25188;DHT22;13141;50.414;8.050;2022-12-18T03:58:55;-6.80;98.90
25188;DHT22;13141;50.414;8.050;2022-12-18T04:01:28;-6.80;98.90
25188;DHT22;13141;50.414;8.050;2022-12-18T04:03:57;-6.90;98.80
25188;DHT22;13141;50.414;8.050;2022-12-18T04:06:25;-6.90;98.70
25188;DHT22;13141;50.414;8.050;2022-12-18T04:08:51;-7.00;98.70
25188;DHT22;13141;50.414;8.050;2022-12-18T04:11:17;-7.00;98.70
25188;DHT22;13141;50.414;8.050;2022-12-18T04:13:43;-7.00;98.60
25188;DHT22;13141;50.414;8.050;2022-12-18T04:16:08;-7.00;98.70
25188;DHT22;13141;50.414;8.050;2022-12-18T04:18:35;-6.90;98.90
25188;DHT22;13141;50.414;8.050;2022-12-18T04:21:01;-7.10;98.80
25188;DHT22;13141;50.414;8.050;2022-12-18T04:23:28;-7.10;98.90
25188;DHT22;13141;50.414;8.050;2022-12-18T04:25:54;-7.10;98.70
25188;DHT22;13141;50.414;8.050;2022-12-18T04:28:19;-7.20;98.60
25188;DHT22;13141;50.414;8.050;2022-12-18T04:30:45;-7.20;98.70
25188;DHT22;13141;50.414;8.050;2022-12-18T04:33:16;-7.10;98.60
25188;DHT22;13141;50.414;8.050;2022-12-18T04:35:42;-7.10;98.40
25188;DHT22;13141;50.414;8.050;2022-12-18T04:38:08;-7.20;98.50
25188;DHT22;13141;50.414;8.050;2022-12-18T04:40:34;-7.20;98.40
25188;DHT22;13141;50.414;8.050;2022-12-18T04:43:00;-7.20;98.50
25188;DHT22;13141;50.414;8.050;2022-12-18T04:45:25;-7.30;98.30
25188;DHT22;13141;50.414;8.050;2022-12-18T04:47:51;-7.30;98.20
25188;DHT22;13141;50.414;8.050;2022-12-18T04:50:16;-7.30;98.50
25188;DHT22;13141;50.414;8.050;2022-12-18T04:52:42;-7.30;98.20
25188;DHT22;13141;50.414;8.050;2022-12-18T04:55:08;-7.10;98.30
25188;DHT22;13141;50.414;8.050;2022-12-18T04:57:34;-7.40;98.40
25188;DHT22;13141;50.414;8.050;2022-12-18T05:00:00;-7.30;98.30
25188;DHT22;13141;50.414;8.050;2022-12-18T05:02:26;-7.40;98.20
25188;DHT22;13141;50.414;8.050;2022-12-18T05:04:51;-7.50;98.30
25188;DHT22;13141;50.414;8.050;2022-12-18T05:07:17;-7.60;98.30
25188;DHT22;13141;50.414;8.050;2022-12-18T05:09:43;-7.40;98.40
25188;DHT22;13141;50.414;8.050;2022-12-18T05:12:08;-7.60;98.40
25188;DHT22;13141;50.414;8.050;2022-12-18T05:14:34;-7.60;98.40
25188;DHT22;13141;50.414;8.050;2022-12-18T05:16:59;-7.60;98.40
25188;DHT22;13141;50.414;8.050;2022-12-18T05:19:25;-7.50;98.40
25188;DHT22;13141;50.414;8.050;2022-12-18T05:21:50;-7.50;98.30
25188;DHT22;13141;50.414;8.050;2022-12-18T05:24:16;-7.50;98.30
25188;DHT22;13141;50.414;8.050;2022-12-18T05:26:41;-7.60;98.20
25188;DHT22;13141;50.414;8.050;2022-12-18T05:29:07;-7.60;98.40
25188;DHT22;13141;50.414;8.050;2022-12-18T05:31:33;-7.50;98.40
25188;DHT22;13141;50.414;8.050;2022-12-18T05:33:58;-7.60;98.20
25188;DHT22;13141;50.414;8.050;2022-12-18T05:36:24;-7.60;98.30
25188;DHT22;13141;50.414;8.050;2022-12-18T05:38:49;-7.50;98.40
25188;DHT22;13141;50.414;8.050;2022-12-18T05:41:15;-7.60;98.30
25188;DHT22;13141;50.414;8.050;2022-12-18T05:43:42;-7.60;98.50
25188;DHT22;13141;50.414;8.050;2022-12-18T05:46:15;-7.50;98.50
25188;DHT22;13141;50.414;8.050;2022-12-18T05:48:42;-7.60;98.60
25188;DHT22;13141;50.414;8.050;2022-12-18T05:51:10;-7.60;98.60
25188;DHT22;13141;50.414;8.050;2022-12-18T05:53:37;-7.60;98.60
25188;DHT22;13141;50.414;8.050;2022-12-18T05:56:05;-7.60;98.50
25188;DHT22;13141;50.414;8.050;2022-12-18T05:58:32;-7.60;98.50
25188;DHT22;13141;50.414;8.050;2022-12-18T06:00:58;-7.60;98.40
25188;DHT22;13141;50.414;8.050;2022-12-18T06:03:24;-7.60;98.40
25188;DHT22;13141;50.414;8.050;2022-12-18T06:05:49;-7.60;98.20
25188;DHT22;13141;50.414;8.050;2022-12-18T06:08:15;-7.70;98.10
25188;DHT22;13141;50.414;8.050;2022-12-18T06:10:41;-7.70;98.00
25188;DHT22;13141;50.414;8.050;2022-12-18T06:13:07;-7.70;98.10
25188;DHT22;13141;50.414;8.050;2022-12-18T06:15:36;-7.70;97.90
25188;DHT22;13141;50.414;8.050;2022-12-18T06:18:02;-7.80;98.00
25188;DHT22;13141;50.414;8.050;2022-12-18T06:20:28;-7.60;98.20
25188;DHT22;13141;50.414;8.050;2022-12-18T06:22:59;-7.80;98.10
25188;DHT22;13141;50.414;8.050;2022-12-18T06:25:24;-7.80;98.10
25188;DHT22;13141;50.414;8.050;2022-12-18T06:27:50;-8.20;97.90
25188;DHT22;13141;50.414;8.050;2022-12-18T06:30:15;-8.10;97.90
25188;DHT22;13141;50.414;8.050;2022-12-18T06:32:41;-7.80;98.20
25188;DHT22;13141;50.414;8.050;2022-12-18T06:35:07;-7.80;98.20
25188;DHT22;13141;50.414;8.050;2022-12-18T06:37:32;-7.80;98.10
25188;DHT22;13141;50.414;8.050;2022-12-18T06:39:58;-7.80;98.30
25188;DHT22;13141;50.414;8.050;2022-12-18T06:42:24;-7.80;98.20
25188;DHT22;13141;50.414;8.050;2022-12-18T06:44:50;-7.80;98.00
25188;DHT22;13141;50.414;8.050;2022-12-18T06:47:16;-7.90;98.00
25188;DHT22;13141;50.414;8.050;2022-12-18T06:49:42;-7.80;98.00
25188;DHT22;13141;50.414;8.050;2022-12-18T06:52:08;-7.70;98.20
25188;DHT22;13141;50.414;8.050;2022-12-18T06:54:34;-7.80;98.10
25188;DHT22;13141;50.414;8.050;2022-12-18T06:56:59;-7.80;98.20
25188;DHT22;13141;50.414;8.050;2022-12-18T06:59:25;-7.90;98.00
25188;DHT22;13141;50.414;8.050;2022-12-18T07:01:51;-7.90;98.30
25188;DHT22;13141;50.414;8.050;2022-12-18T07:04:17;-7.80;98.30
25188;DHT22;13141;50.414;8.050;2022-12-18T07:06:42;-7.60;98.60
25188;DHT22;13141;50.414;8.050;2022-12-18T07:09:08;-7.90;98.50
25188;DHT22;13141;50.414;8.050;2022-12-18T07:11:34;-8.00;98.40
25188;DHT22;13141;50.414;8.050;2022-12-18T07:14:02;-7.80;98.40
25188;DHT22;13141;50.414;8.050;2022-12-18T07:16:27;-7.60;98.40
25188;DHT22;13141;50.414;8.050;2022-12-18T07:18:56;-7.80;98.30
25188;DHT22;13141;50.414;8.050;2022-12-18T07:21:23;-7.80;98.10
25188;DHT22;13141;50.414;8.050;2022-12-18T07:23:51;-7.90;98.30
25188;DHT22;13141;50.414;8.050;2022-12-18T07:26:19;-7.70;98.40
25188;DHT22;13141;50.414;8.050;2022-12-18T07:28:45;-7.90;98.40
25188;DHT22;13141;50.414;8.050;2022-12-18T07:31:17;-7.70;98.50
25188;DHT22;13141;50.414;8.050;2022-12-18T07:33:43;-8.00;98.30
25188;DHT22;13141;50.414;8.050;2022-12-18T07:36:10;-8.00;98.20
25188;DHT22;13141;50.414;8.050;2022-12-18T07:38:36;-7.80;98.20
25188;DHT22;13141;50.414;8.050;2022-12-18T07:41:07;-7.90;98.20
25188;DHT22;13141;50.414;8.050;2022-12-18T07:43:37;-7.90;98.20
25188;DHT22;13141;50.414;8.050;2022-12-18T07:46:03;-7.90;98.00
25188;DHT22;13141;50.414;8.050;2022-12-18T07:48:29;-7.90;97.80
25188;DHT22;13141;50.414;8.050;2022-12-18T07:51:05;-8.00;97.90
25188;DHT22;13141;50.414;8.050;2022-12-18T07:53:32;-7.90;98.00
25188;DHT22;13141;50.414;8.050;2022-12-18T07:56:00;-8.00;98.00
25188;DHT22;13141;50.414;8.050;2022-12-18T07:58:30;-8.00;98.10
25188;DHT22;13141;50.414;8.050;2022-12-18T08:01:07;-8.00;98.00
25188;DHT22;13141;50.414;8.050;2022-12-18T08:03:34;-8.00;97.90
25188;DHT22;13141;50.414;8.050;2022-12-18T08:06:05;-8.00;97.70
25188;DHT22;13141;50.414;8.050;2022-12-18T08:08:33;-8.00;98.20
25188;DHT22;13141;50.414;8.050;2022-12-18T08:10:59;-7.90;98.20
25188;DHT22;13141;50.414;8.050;2022-12-18T08:13:26;-7.90;98.40
25188;DHT22;13141;50.414;8.050;2022-12-18T08:15:56;-7.90;98.60
25188;DHT22;13141;50.414;8.050;2022-12-18T08:18:22;-8.40;98.40
25188;DHT22;13141;50.414;8.050;2022-12-18T08:20:51;-7.70;98.50
25188;DHT22;13141;50.414;8.050;2022-12-18T08:23:16;-7.90;98.60
25188;DHT22;13141;50.414;8.050;2022-12-18T08:25:48;-7.90;98.90
25188;DHT22;13141;50.414;8.050;2022-12-18T08:28:17;-7.80;98.80
25188;DHT22;13141;50.414;8.050;2022-12-18T08:30:43;-7.50;99.30
25188;DHT22;13141;50.414;8.050;2022-12-18T08:33:10;-7.70;98.90
25188;DHT22;13141;50.414;8.050;2022-12-18T08:35:41;-7.70;99.20
25188;DHT22;13141;50.414;8.050;2022-12-18T08:38:07;-7.80;99.20
25188;DHT22;13141;50.414;8.050;2022-12-18T08:40:36;-8.10;99.10
25188;DHT22;13141;50.414;8.050;2022-12-18T08:43:18;-7.70;99.20
25188;DHT22;13141;50.414;8.050;2022-12-18T08:46:23;-7.60;99.50
25188;DHT22;13141;50.414;8.050;2022-12-18T08:48:51;-7.80;99.60
25188;DHT22;13141;50.414;8.050;2022-12-18T08:51:20;-7.90;99.70
25188;DHT22;13141;50.414;8.050;2022-12-18T08:53:48;-7.50;99.80
25188;DHT22;13141;50.414;8.050;2022-12-18T08:56:14;-7.80;99.60
25188;DHT22;13141;50.414;8.050;2022-12-18T08:58:40;-7.30;99.90
25188;DHT22;13141;50.414;8.050;2022-12-18T09:01:09;-7.30;99.90
25188;DHT22;13141;50.414;8.050;2022-12-18T09:03:36;-7.20;99.90
25188;DHT22;13141;50.414;8.050;2022-12-18T09:06:14;-7.20;99.90
25188;DHT22;13141;50.414;8.050;2022-12-18T09:08:41;-7.50;99.90
25188;DHT22;13141;50.414;8.050;2022-12-18T09:11:22;-7.10;99.90
25188;DHT22;13141;50.414;8.050;2022-12-18T09:13:48;-7.00;99.90
25188;DHT22;13141;50.414;8.050;2022-12-18T09:16:14;-7.00;99.90
25188;DHT22;13141;50.414;8.050;2022-12-18T09:18:40;-6.90;99.90
25188;DHT22;13141;50.414;8.050;2022-12-18T09:21:13;-6.70;99.90
25188;DHT22;13141;50.414;8.050;2022-12-18T09:23:40;-6.30;99.90
25188;DHT22;13141;50.414;8.050;2022-12-18T09:26:09;-6.00;99.90
25188;DHT22;13141;50.414;8.050;2022-12-18T09:28:35;-5.60;99.90
25188;DHT22;13141;50.414;8.050;2022-12-18T09:31:08;-5.70;99.90
25188;DHT22;13141;50.414;8.050;2022-12-18T09:33:35;-5.30;99.90
25188;DHT22;13141;50.414;8.050;2022-12-18T09:36:06;-5.40;99.90
25188;DHT22;13141;50.414;8.050;2022-12-18T09:38:34;-5.20;99.90
25188;DHT22;13141;50.414;8.050;2022-12-18T09:41:05;-5.20;99.90
25188;DHT22;13141;50.414;8.050;2022-12-18T09:43:51;-5.00;99.90
25188;DHT22;13141;50.414;8.050;2022-12-18T09:46:29;-5.00;99.90
25188;DHT22;13141;50.414;8.050;2022-12-18T09:49:02;-5.00;99.90
25188;DHT22;13141;50.414;8.050;2022-12-18T09:51:39;-4.90;99.90
25188;DHT22;13141;50.414;8.050;2022-12-18T09:54:13;-4.70;99.90
25188;DHT22;13141;50.414;8.050;2022-12-18T09:56:42;-4.50;99.90
25188;DHT22;13141;50.414;8.050;2022-12-18T09:59:32;-4.40;99.90
25188;DHT22;13141;50.414;8.050;2022-12-18T10:02:00;-4.00;99.90
25188;DHT22;13141;50.414;8.050;2022-12-18T10:04:33;-4.00;99.60
25188;DHT22;13141;50.414;8.050;2022-12-18T10:07:06;-3.60;99.90
25188;DHT22;13141;50.414;8.050;2022-12-18T10:09:50;-3.10;99.90
25188;DHT22;13141;50.414;8.050;2022-12-18T10:15:24;-2.90;99.00
25188;DHT22;13141;50.414;8.050;2022-12-18T10:18:43;-3.00;99.50
25188;DHT22;13141;50.414;8.050;2022-12-18T10:21:04;-2.90;99.40
25188;DHT22;13141;50.414;8.050;2022-12-18T10:26:35;-2.70;99.40
25188;DHT22;13141;50.414;8.050;2022-12-18T10:29:12;-2.80;99.90
25188;DHT22;13141;50.414;8.050;2022-12-18T10:31:38;-2.80;99.90
25188;DHT22;13141;50.414;8.050;2022-12-18T10:34:16;-3.10;99.40
25188;DHT22;13141;50.414;8.050;2022-12-18T10:36:42;-3.20;99.90
25188;DHT22;13141;50.414;8.050;2022-12-18T10:39:20;-2.90;99.90
25188;DHT22;13141;50.414;8.050;2022-12-18T10:41:51;-2.70;99.90
25188;DHT22;13141;50.414;8.050;2022-12-18T10:44:26;-2.70;99.90
25188;DHT22;13141;50.414;8.050;2022-12-18T10:47:04;-2.50;99.90
25188;DHT22;13141;50.414;8.050;2022-12-18T10:49:33;-2.30;99.90
25188;DHT22;13141;50.414;8.050;2022-12-18T10:52:21;-2.30;99.90
25188;DHT22;13141;50.414;8.050;2022-12-18T10:54:55;-2.10;99.90
25188;DHT22;13141;50.414;8.050;2022-12-18T10:57:31;-2.10;99.90
25188;DHT22;13141;50.414;8.050;2022-12-18T11:00:22;-1.90;99.90
25188;DHT22;13141;50.414;8.050;2022-12-18T11:02:44;-1.60;99.90
25188;DHT22;13141;50.414;8.050;2022-12-18T11:05:48;-1.20;99.50
25188;DHT22;13141;50.414;8.050;2022-12-18T11:08:39;-0.70;99.90
25188;DHT22;13141;50.414;8.050;2022-12-18T11:11:21;-1.10;99.60
25188;DHT22;13141;50.414;8.050;2022-12-18T11:14:02;-0.80;99.50
25188;DHT22;13141;50.414;8.050;2022-12-18T11:16:42;-0.70;99.90
25188;DHT22;13141;50.414;8.050;2022-12-18T11:22:33;-0.60;99.90
25188;DHT22;13141;50.414;8.050;2022-12-18T11:25:01;-0.50;99.90
25188;DHT22;13141;50.414;8.050;2022-12-18T11:27:31;-0.60;99.90
25188;DHT22;13141;50.414;8.050;2022-12-18T11:30:25;-0.50;99.90
25188;DHT22;13141;50.414;8.050;2022-12-18T11:32:58;-0.30;99.90
25188;DHT22;13141;50.414;8.050;2022-12-18T11:35:37;-0.30;99.90
25188;DHT22;13141;50.414;8.050;2022-12-18T11:38:21;-0.40;99.90
25188;DHT22;13141;50.414;8.050;2022-12-18T11:41:05;-0.30;99.90
25188;DHT22;13141;50.414;8.050;2022-12-18T11:43:52;-0.30;99.90
25188;DHT22;13141;50.414;8.050;2022-12-18T11:46:38;-0.70;99.90
25188;DHT22;13141;50.414;8.050;2022-12-18T11:51:51;-0.40;99.90
25188;DHT22;13141;50.414;8.050;2022-12-18T11:54:21;-0.20;99.90
25188;DHT22;13141;50.414;8.050;2022-12-18T11:57:16;-0.40;99.90
25188;DHT22;13141;50.414;8.050;2022-12-18T12:10:50;0.30;99.90
25188;DHT22;13141;50.414;8.050;2022-12-18T12:18:54;0.60;99.90
25188;DHT22;13141;50.414;8.050;2022-12-18T12:21:43;0.80;99.90
25188;DHT22;13141;50.414;8.050;2022-12-18T12:24:49;0.80;99.90
25188;DHT22;13141;50.414;8.050;2022-12-18T12:27:34;0.90;99.90
25188;DHT22;13141;50.414;8.050;2022-12-18T12:30:29;0.90;99.90
25188;DHT22;13141;50.414;8.050;2022-12-18T12:33:22;0.90;99.90
25188;DHT22;13141;50.414;8.050;2022-12-18T12:39:02;0.40;99.90
25188;DHT22;13141;50.414;8.050;2022-12-18T12:41:32;0.60;99.90
25188;DHT22;13141;50.414;8.050;2022-12-18T12:44:25;0.60;99.90
25188;DHT22;13141;50.414;8.050;2022-12-18T12:46:57;0.50;99.90
25188;DHT22;13141;50.414;8.050;2022-12-18T12:49:28;0.40;99.90
25188;DHT22;13141;50.414;8.050;2022-12-18T12:52:11;0.20;99.90
25188;DHT22;13141;50.414;8.050;2022-12-18T12:54:42;0.00;99.90
25188;DHT22;13141;50.414;8.050;2022-12-18T12:57:21;0.00;99.90
25188;DHT22;13141;50.414;8.050;2022-12-18T13:05:28;-0.60;99.90
25188;DHT22;13141;50.414;8.050;2022-12-18T13:08:05;-0.60;99.90
25188;DHT22;13141;50.414;8.050;2022-12-18T13:10:34;-0.60;99.90
25188;DHT22;13141;50.414;8.050;2022-12-18T13:15:45;-0.60;99.90
25188;DHT22;13141;50.414;8.050;2022-12-18T13:18:14;-0.50;99.90
25188;DHT22;13141;50.414;8.050;2022-12-18T13:20:47;-0.50;99.90
25188;DHT22;13141;50.414;8.050;2022-12-18T13:31:12;-0.40;99.90
25188;DHT22;13141;50.414;8.050;2022-12-18T13:33:45;-0.70;99.90
25188;DHT22;13141;50.414;8.050;2022-12-18T13:36:29;-0.70;99.90
25188;DHT22;13141;50.414;8.050;2022-12-18T13:41:43;-0.80;99.90
25188;DHT22;13141;50.414;8.050;2022-12-18T13:44:34;-0.80;99.90
25188;DHT22;13141;50.414;8.050;2022-12-18T13:47:02;-0.90;99.90
25188;DHT22;13141;50.414;8.050;2022-12-18T13:49:41;-0.90;99.90
25188;DHT22;13141;50.414;8.050;2022-12-18T13:52:22;-0.90;99.90
25188;DHT22;13141;50.414;8.050;2022-12-18T13:54:55;-1.00;99.90
25188;DHT22;13141;50.414;8.050;2022-12-18T13:57:33;-1.10;99.90
25188;DHT22;13141;50.414;8.050;2022-12-18T14:02:48;-1.10;99.90
25188;DHT22;13141;50.414;8.050;2022-12-18T14:05:28;-1.10;99.90
25188;DHT22;13141;50.414;8.050;2022-12-18T14:08:05;-1.20;99.90
25188;DHT22;13141;50.414;8.050;2022-12-18T14:10:31;-1.20;99.90
25188;DHT22;13141;50.414;8.050;2022-12-18T14:12:57;-1.00;99.90
25188;DHT22;13141;50.414;8.050;2022-12-18T14:15:46;-1.20;99.90
25188;DHT22;13141;50.414;8.050;2022-12-18T14:21:22;-1.70;99.90
25188;DHT22;13141;50.414;8.050;2022-12-18T14:23:48;-1.80;99.90
25188;DHT22;13141;50.414;8.050;2022-12-18T14:26:29;-1.60;99.90
25188;DHT22;13141;50.414;8.050;2022-12-18T14:29:00;-1.70;99.90
25188;DHT22;13141;50.414;8.050;2022-12-18T14:31:29;-1.70;99.90
25188;DHT22;13141;50.414;8.050;2022-12-18T14:33:55;-1.60;99.90
25188;DHT22;13141;50.414;8.050;2022-12-18T14:36:23;-1.30;99.90
25188;DHT22;13141;50.414;8.050;2022-12-18T14:38:58;-1.50;99.90
25188;DHT22;13141;50.414;8.050;2022-12-18T14:41:25;-1.60;99.90
25188;DHT22;13141;50.414;8.050;2022-12-18T14:43:54;-1.60;99.90
25188;DHT22;13141;50.414;8.050;2022-12-18T14:46:39;-1.40;99.90
25188;DHT22;13141;50.414;8.050;2022-12-18T14:51:50;-1.40;99.90
25188;DHT22;13141;50.414;8.050;2022-12-18T14:54:19;-1.50;99.90
25188;DHT22;13141;50.414;8.050;2022-12-18T14:59:26;-1.90;99.90
25188;DHT22;13141;50.414;8.050;2022-12-18T15:02:01;-1.60;99.90
25188;DHT22;13141;50.414;8.050;2022-12-18T15:04:29;-1.50;99.90
25188;DHT22;13141;50.414;8.050;2022-12-18T15:07:15;-1.30;99.90
25188;DHT22;13141;50.414;8.050;2022-12-18T15:09:44;-1.40;99.90
25188;DHT22;13141;50.414;8.050;2022-12-18T15:14:53;-1.50;99.90
25188;DHT22;13141;50.414;8.050;2022-12-18T15:17:23;-1.30;99.90
25188;DHT22;13141;50.414;8.050;2022-12-18T15:19:53;-1.50;99.90
25188;DHT22;13141;50.414;8.050;2022-12-18T15:22:34;-1.50;99.90
25188;DHT22;13141;50.414;8.050;2022-12-18T15:25:00;-1.90;99.90
25188;DHT22;13141;50.414;8.050;2022-12-18T15:27:32;-1.60;99.90
25188;DHT22;13141;50.414;8.050;2022-12-18T15:32:37;-1.70;99.90
25188;DHT22;13141;50.414;8.050;2022-12-18T15:37:44;-1.70;99.90
25188;DHT22;13141;50.414;8.050;2022-12-18T15:40:19;-1.70;99.90
25188;DHT22;13141;50.414;8.050;2022-12-18T15:42:45;-1.70;99.90
25188;DHT22;13141;50.414;8.050;2022-12-18T15:45:33;-2.10;99.90
25188;DHT22;13141;50.414;8.050;2022-12-18T15:47:59;-1.80;99.90
25188;DHT22;13141;50.414;8.050;2022-12-18T15:50:25;-1.80;99.90
25188;DHT22;13141;50.414;8.050;2022-12-18T15:52:52;-1.70;99.90
25188;DHT22;13141;50.414;8.050;2022-12-18T15:55:21;-1.80;99.90
25188;DHT22;13141;50.414;8.050;2022-12-18T15:58:07;-1.90;99.90
25188;DHT22;13141;50.414;8.050;2022-12-18T16:00:34;-2.00;99.90
25188;DHT22;13141;50.414;8.050;2022-12-18T16:03:01;-2.00;99.90
25188;DHT22;13141;50.414;8.050;2022-12-18T16:05:27;-2.00;99.90
25188;DHT22;13141;50.414;8.050;2022-12-18T16:07:53;-2.00;99.90
25188;DHT22;13141;50.414;8.050;2022-12-18T16:10:19;-2.00;99.90
25188;DHT22;13141;50.414;8.050;2022-12-18T16:12:45;-2.00;99.90
25188;DHT22;13141;50.414;8.050;2022-12-18T16:15:13;-2.00;99.90
25188;DHT22;13141;50.414;8.050;2022-12-18T16:17:41;-2.00;99.90
25188;DHT22;13141;50.414;8.050;2022-12-18T16:20:15;-2.00;99.90
25188;DHT22;13141;50.414;8.050;2022-12-18T16:22:42;-2.00;99.90
25188;DHT22;13141;50.414;8.050;2022-12-18T16:25:20;-2.00;99.90
25188;DHT22;13141;50.414;8.050;2022-12-18T16:27:47;-1.90;99.90
25188;DHT22;13141;50.414;8.050;2022-12-18T16:30:14;-1.90;99.90
25188;DHT22;13141;50.414;8.050;2022-12-18T16:32:41;-1.90;99.90
25188;DHT22;13141;50.414;8.050;2022-12-18T16:35:09;-1.70;99.90
25188;DHT22;13141;50.414;8.050;2022-12-18T16:37:36;-2.00;99.90
25188;DHT22;13141;50.414;8.050;2022-12-18T16:40:02;-2.00;99.90
25188;DHT22;13141;50.414;8.050;2022-12-18T16:42:27;-2.00;99.90
25188;DHT22;13141;50.414;8.050;2022-12-18T16:44:53;-2.00;99.90
25188;DHT22;13141;50.414;8.050;2022-12-18T16:47:19;-2.00;99.90
25188;DHT22;13141;50.414;8.050;2022-12-18T16:49:44;-1.90;99.90
25188;DHT22;13141;50.414;8.050;2022-12-18T16:52:10;-1.90;99.90
25188;DHT22;13141;50.414;8.050;2022-12-18T16:54:36;-1.90;99.90
25188;DHT22;13141;50.414;8.050;2022-12-18T16:57:03;-1.90;99.90
25188;DHT22;13141;50.414;8.050;2022-12-18T16:59:29;-1.90;99.90
25188;DHT22;13141;50.414;8.050;2022-12-18T17:01:55;-1.90;99.90
25188;DHT22;13141;50.414;8.050;2022-12-18T17:04:21;-2.00;99.90
25188;DHT22;13141;50.414;8.050;2022-12-18T17:06:47;-2.00;99.90
25188;DHT22;13141;50.414;8.050;2022-12-18T17:09:18;-1.90;99.90
25188;DHT22;13141;50.414;8.050;2022-12-18T17:11:50;-1.80;99.90
25188;DHT22;13141;50.414;8.050;2022-12-18T17:14:18;-1.90;99.90
25188;DHT22;13141;50.414;8.050;2022-12-18T17:16:45;-1.90;99.90
25188;DHT22;13141;50.414;8.050;2022-12-18T17:19:11;-2.00;99.90
25188;DHT22;13141;50.414;8.050;2022-12-18T17:21:37;-1.90;99.90